Time;durP1;ratioP1;P1;durP2;ratioP2;P2;SDS_P1;SDS_P2;PMS_P1;PMS_P2;Temp;Humidity;BMP_temperature;BMP_pressure;BME280_temperature;BME280_humidity;BME280_pressure;Samples;Min_cycle;Max_cycle;Signal;HPM_P1;HPM_P2
2021/08/25 00:03:07;;;;;;;2.07;1.53;;;19.80;73.50;;;;;;10498394;28;20219;-58
2021/08/25 00:08:29;;;;;;;1.57;1.47;;;19.80;73.50;;;;;;10495479;28;20694;-59
2021/08/25 00:13:53;;;;;;;3.00;1.43;;;19.80;73.50;;;;;;10489669;28;20208;-56
2021/08/25 00:19:15;;;;;;;2.23;1.60;;;19.80;73.50;;;;;;10463657;28;20193;-60
2021/08/25 00:24:37;;;;;;;1.70;1.50;;;19.80;73.50;;;;;;10434787;28;20224;-57
2021/08/25 00:30:02;;;;;;;1.50;1.27;;;19.80;73.50;;;;;;10457628;28;20217;-59
2021/08/25 00:35:25;;;;;;;2.20;1.70;;;19.80;73.50;;;;;;10455100;28;20194;-58
2021/08/25 00:40:47;;;;;;;2.10;1.60;;;19.80;73.50;;;;;;10456532;28;20217;-58
2021/08/25 00:46:11;;;;;;;1.93;1.43;;;19.80;73.50;;;;;;10450775;28;20216;-57
2021/08/25 00:51:33;;;;;;;1.83;1.47;;;19.80;73.60;;;;;;10457216;28;20216;-58
2021/08/25 00:56:55;;;;;;;1.97;1.57;;;19.80;73.60;;;;;;10497530;28;20216;-55
2021/08/25 01:02:26;;;;;;;2.00;1.70;;;19.80;73.50;;;;;;10422779;28;20707;-59
2021/08/25 01:07:48;;;;;;;2.00;1.80;;;19.70;73.50;;;;;;10456287;28;20275;-57
2021/08/25 01:13:12;;;;;;;2.10;1.53;;;19.70;73.50;;;;;;10454824;28;20355;-58
2021/08/25 01:18:36;;;;;;;1.90;1.60;;;19.70;73.50;;;;;;10456119;28;20197;-58
2021/08/25 01:23:59;;;;;;;2.07;1.50;;;19.70;73.50;;;;;;10455427;28;20719;-61
2021/08/25 01:29:31;;;;;;;2.03;1.30;;;19.70;73.50;;;;;;10454524;28;20200;-58
2021/08/25 01:34:54;;;;;;;1.60;1.50;;;19.70;73.50;;;;;;10454415;28;20193;-60
2021/08/25 01:40:16;;;;;;;1.77;1.50;;;19.70;73.60;;;;;;10454301;28;20210;-58
2021/08/25 01:45:40;;;;;;;1.70;1.40;;;19.70;73.50;;;;;;10454762;28;20213;-58
2021/08/25 01:51:03;;;;;;;1.60;1.43;;;19.70;73.50;;;;;;10454083;28;20718;-60
2021/08/25 01:56:26;;;;;;;1.63;1.27;;;19.70;73.60;;;;;;10490964;28;20188;-58
2021/08/25 02:01:49;;;;;;;1.50;1.33;;;19.70;73.50;;;;;;10504374;22;20236;-64
2021/08/25 02:07:11;;;;;;;1.77;1.30;;;19.70;73.50;;;;;;10472701;28;20223;-65
2021/08/25 02:12:34;;;;;;;2.20;1.87;;;19.70;73.50;;;;;;10463304;28;20714;-66
2021/08/25 02:17:57;;;;;;;1.97;1.53;;;19.70;73.50;;;;;;10452713;28;20189;-65
2021/08/25 02:23:19;;;;;;;1.87;1.57;;;19.70;73.60;;;;;;10428959;28;20278;-65
2021/08/25 02:28:41;;;;;;;1.60;1.40;;;19.70;73.60;;;;;;10452787;28;20204;-62
2021/08/25 02:34:04;;;;;;;1.87;1.50;;;19.70;73.50;;;;;;10452710;28;20225;-62
2021/08/25 02:39:27;;;;;;;2.77;1.60;;;19.70;73.50;;;;;;10452542;28;20223;-62
2021/08/25 02:44:49;;;;;;;1.43;1.07;;;19.70;73.60;;;;;;10452382;28;20611;-62
2021/08/25 02:50:12;;;;;;;2.00;1.60;;;19.70;73.50;;;;;;10449875;28;20592;-62
2021/08/25 02:55:34;;;;;;;1.57;1.40;;;19.70;73.50;;;;;;10451013;28;20199;-61
2021/08/25 03:00:56;;;;;;;1.47;1.37;;;19.60;73.40;;;;;;10450930;28;20221;-63
2021/08/25 03:06:20;;;;;;;2.40;1.50;;;19.70;73.50;;;;;;10452166;28;20220;-63
2021/08/25 03:11:42;;;;;;;1.90;1.60;;;19.70;73.40;;;;;;10457829;28;20227;-62
2021/08/25 03:17:04;;;;;;;1.97;1.50;;;19.70;73.30;;;;;;10450608;28;20205;-59
2021/08/25 03:22:29;;;;;;;1.13;1.00;;;19.60;73.30;;;;;;10459985;28;20220;-63
2021/08/25 03:27:51;;;;;;;1.47;1.23;;;19.60;73.30;;;;;;10458741;28;20692;-62
2021/08/25 03:33:13;;;;;;;1.63;1.33;;;19.70;73.30;;;;;;10458923;28;20626;-63
2021/08/25 03:38:36;;;;;;;1.33;1.23;;;19.60;73.30;;;;;;10458276;28;20579;-63
2021/08/25 03:43:58;;;;;;;1.73;1.40;;;19.60;73.20;;;;;;10450382;28;20216;-63
2021/08/25 03:49:21;;;;;;;2.00;1.30;;;19.70;73.10;;;;;;10459367;28;20201;-61
2021/08/25 03:54:44;;;;;;;1.67;1.40;;;19.60;72.70;;;;;;10435004;28;20224;-61
2021/08/25 04:00:07;;;;;;;1.77;1.47;;;19.70;72.70;;;;;;10443467;28;20220;-62
2021/08/25 04:05:29;;;;;;;2.03;1.33;;;19.60;72.50;;;;;;10458070;28;20220;-59
2021/08/25 04:10:53;;;;;;;1.53;1.20;;;19.70;72.60;;;;;;10456788;28;20218;-61
2021/08/25 04:16:15;;;;;;;1.40;1.30;;;19.70;72.60;;;;;;10454332;28;20190;-63
2021/08/25 04:21:37;;;;;;;1.60;1.30;;;19.70;72.50;;;;;;10425259;28;20219;-63
2021/08/25 04:27:00;;;;;;;1.87;1.33;;;19.60;72.60;;;;;;10456449;28;20228;-63
2021/08/25 04:32:22;;;;;;;1.60;1.40;;;19.70;72.70;;;;;;10457062;28;20638;-59
2021/08/25 04:37:45;;;;;;;1.77;1.40;;;19.60;72.60;;;;;;10457332;28;20572;-62
2021/08/25 04:43:08;;;;;;;1.67;1.37;;;19.70;72.60;;;;;;10456712;28;20225;-62
2021/08/25 04:48:30;;;;;;;1.50;1.20;;;19.60;72.70;;;;;;10455204;28;20200;-60
2021/08/25 04:53:52;;;;;;;1.87;1.40;;;19.70;72.70;;;;;;10438752;28;20684;-60
2021/08/25 04:59:16;;;;;;;1.60;1.50;;;19.60;72.70;;;;;;10447551;28;20193;-61
2021/08/25 05:04:38;;;;;;;1.53;1.30;;;19.70;72.80;;;;;;10435959;28;20259;-62
2021/08/25 05:10:00;;;;;;;1.37;1.20;;;19.70;72.70;;;;;;10433798;28;20192;-63
2021/08/25 05:15:23;;;;;;;1.47;1.17;;;19.70;72.70;;;;;;10434233;28;20197;-62
2021/08/25 05:20:45;;;;;;;1.50;1.30;;;19.70;72.50;;;;;;10434712;28;20213;-62
2021/08/25 05:26:09;;;;;;;1.37;1.13;;;19.70;72.40;;;;;;10435097;28;20218;-62
2021/08/25 05:31:32;;;;;;;1.47;1.00;;;19.70;72.40;;;;;;10434277;28;20327;-60
2021/08/25 05:36:54;;;;;;;1.40;1.30;;;19.70;72.50;;;;;;10436519;28;20196;-62
2021/08/25 05:42:16;;;;;;;1.10;1.00;;;19.70;72.50;;;;;;10454483;28;20596;-62
2021/08/25 05:47:40;;;;;;;1.63;1.20;;;19.70;72.60;;;;;;10453830;28;20287;-62
2021/08/25 05:53:02;;;;;;;1.97;1.30;;;19.70;72.70;;;;;;10444187;28;20214;-60
2021/08/25 05:58:24;;;;;;;1.90;1.40;;;19.70;72.70;;;;;;10425599;28;20200;-62
2021/08/25 06:03:47;;;;;;;2.07;1.30;;;19.70;72.70;;;;;;10420596;28;20228;-61
2021/08/25 06:09:09;;;;;;;1.80;1.00;;;19.70;72.60;;;;;;10412477;28;20691;-64
2021/08/25 06:14:31;;;;;;;1.27;1.17;;;19.70;72.50;;;;;;10452706;28;20684;-60
2021/08/25 06:19:55;;;;;;;1.97;1.30;;;19.70;72.30;;;;;;10418201;28;20693;-62
2021/08/25 06:25:17;;;;;;;1.50;1.30;;;19.70;72.40;;;;;;10411285;28;20209;-63
2021/08/25 06:30:39;;;;;;;1.70;1.33;;;19.70;72.30;;;;;;10428132;28;20221;-63
2021/08/25 06:36:03;;;;;;;1.40;1.30;;;19.70;72.40;;;;;;10411620;28;20193;-62
2021/08/25 06:41:25;;;;;;;1.60;1.17;;;19.70;72.50;;;;;;10410997;28;20213;-63
2021/08/25 06:46:47;;;;;;;1.83;1.47;;;19.70;72.50;;;;;;10408320;28;20224;-64
2021/08/25 06:52:10;;;;;;;1.80;1.40;;;19.70;72.60;;;;;;10412341;28;20219;-61
2021/08/25 06:57:32;;;;;;;1.43;1.30;;;19.70;72.70;;;;;;10442093;28;20194;-62
2021/08/25 07:02:54;;;;;;;1.90;1.30;;;19.70;72.80;;;;;;10409874;28;20236;-62
2021/08/25 07:08:18;;;;;;;1.50;1.20;;;19.70;72.90;;;;;;10409711;28;20229;-62
2021/08/25 07:13:40;;;;;;;1.97;1.60;;;19.60;73.00;;;;;;10444585;28;20217;-59
2021/08/25 07:19:03;;;;;;;2.33;1.23;;;19.70;73.20;;;;;;10450471;28;20204;-62
2021/08/25 07:24:26;;;;;;;1.43;1.30;;;19.60;73.30;;;;;;10442102;28;20245;-63
2021/08/25 07:29:48;;;;;;;1.53;1.40;;;19.70;73.40;;;;;;10410032;28;20245;-63
2021/08/25 07:35:12;;;;;;;1.47;1.17;;;19.70;73.50;;;;;;10410446;28;20259;-59
2021/08/25 07:40:35;;;;;;;1.60;1.20;;;19.60;73.60;;;;;;10409055;28;20225;-62
2021/08/25 07:45:57;;;;;;;1.70;1.37;;;19.60;73.70;;;;;;10410135;28;20206;-62
2021/08/25 07:51:19;;;;;;;1.30;1.20;;;19.60;73.80;;;;;;10421185;28;20715;-63
2021/08/25 07:56:43;;;;;;;2.20;1.30;;;19.60;73.80;;;;;;10415045;28;20669;-62
2021/08/25 08:02:05;;;;;;;1.13;1.00;;;19.60;73.80;;;;;;10471854;22;20547;-56
2021/08/25 08:07:27;;;;;;;1.10;1.00;;;19.60;73.80;;;;;;10479916;28;20699;-58
2021/08/25 08:12:52;;;;;;;1.20;1.00;;;19.60;73.80;;;;;;10476692;28;20217;-58
2021/08/25 08:18:19;;;;;;;1.30;1.10;;;19.60;73.80;;;;;;10418159;28;20670;-58
2021/08/25 08:23:41;;;;;;;1.20;1.10;;;19.60;73.80;;;;;;10452206;28;20302;-60
2021/08/25 08:29:05;;;;;;;1.33;1.10;;;19.70;73.90;;;;;;10422826;28;20687;-60
2021/08/25 08:34:27;;;;;;;1.70;1.30;;;19.60;73.90;;;;;;10457499;28;20680;-59
2021/08/25 08:39:49;;;;;;;3.40;2.15;;;19.60;73.90;;;;;;10446398;28;20436;-66
2021/08/25 08:45:15;;;;;;;4.87;2.27;;;19.70;74.10;;;;;;10456179;28;20699;-52
2021/08/25 08:50:38;;;;;;;4.50;2.53;;;19.90;74.30;;;;;;10450588;28;20217;-54
2021/08/25 08:56:00;;;;;;;4.07;2.20;;;19.90;73.90;;;;;;10450425;28;20193;-56
2021/08/25 09:01:24;;;;;;;2.70;2.07;;;19.80;73.20;;;;;;10449335;28;20233;-57
2021/08/25 09:06:47;;;;;;;2.67;1.80;;;19.80;73.60;;;;;;10451228;28;20221;-61
2021/08/25 09:12:13;;;;;;;3.17;2.20;;;19.80;73.80;;;;;;10451268;28;20232;-61
2021/08/25 09:17:36;;;;;;;2.70;2.10;;;19.80;73.80;;;;;;10441591;28;20197;-58
2021/08/25 09:23:09;;;;;;;3.27;1.97;;;19.80;73.80;;;;;;10445645;28;20222;-55
2021/08/25 09:28:34;;;;;;;2.37;1.70;;;19.80;73.30;;;;;;10450054;28;20213;-57
2021/08/25 09:33:57;;;;;;;2.67;2.10;;;19.70;73.20;;;;;;10438077;28;20224;-57
2021/08/25 09:39:22;;;;;;;2.80;1.90;;;19.70;73.20;;;;;;10449045;28;20212;-61
2021/08/25 09:44:45;;;;;;;1.73;1.60;;;19.70;73.10;;;;;;10447370;28;20225;-60
2021/08/25 09:50:09;;;;;;;2.83;1.73;;;19.70;73.20;;;;;;10409893;28;20201;-62
2021/08/25 09:55:32;;;;;;;2.23;1.60;;;19.70;73.20;;;;;;10437430;28;20193;-61
2021/08/25 10:00:56;;;;;;;3.70;2.00;;;19.70;73.20;;;;;;10412950;28;1044504;-61
2021/08/25 10:06:21;;;;;;;2.63;1.70;;;19.70;73.40;;;;;;10453292;28;20224;-59
2021/08/25 10:11:45;;;;;;;1.53;1.43;;;19.70;73.60;;;;;;10453190;28;20221;-61
2021/08/25 10:17:07;;;;;;;2.30;1.80;;;19.70;73.50;;;;;;10450327;28;20193;-61
2021/08/25 10:22:31;;;;;;;3.33;1.50;;;19.70;73.60;;;;;;10452527;28;20228;-62
2021/08/25 10:28:02;;;;;;;2.00;1.57;;;19.70;74.30;;;;;;10452550;28;20699;-62
2021/08/25 10:33:24;;;;;;;6.00;3.80;;;19.70;74.20;;;;;;10452215;28;20296;-62
2021/08/25 10:38:47;;;;;;;5.37;2.50;;;19.70;74.00;;;;;;10451775;28;20193;-62
2021/08/25 10:44:09;;;;;;;3.50;2.30;;;19.70;73.90;;;;;;10451440;28;20640;-61
2021/08/25 10:49:32;;;;;;;3.43;2.30;;;19.70;74.20;;;;;;10452218;28;20564;-61
2021/08/25 10:54:56;;;;;;;5.37;2.63;;;19.70;74.00;;;;;;10426925;28;20210;-63
2021/08/25 11:00:19;;;;;;;3.47;2.00;;;19.70;74.00;;;;;;10438325;28;20276;-61
2021/08/25 11:05:41;;;;;;;4.00;2.50;;;19.70;73.90;;;;;;10452318;28;20217;-61
2021/08/25 11:11:14;;;;;;;4.60;2.73;;;19.70;73.90;;;;;;10451039;28;20221;-62
2021/08/25 11:16:36;;;;;;;3.00;2.20;;;19.70;73.80;;;;;;10448678;28;20196;-60
2021/08/25 11:22:00;;;;;;;3.90;2.03;;;19.70;73.80;;;;;;10451226;28;20701;-61
2021/08/25 11:27:26;;;;;;;3.63;2.20;;;19.70;73.70;;;;;;10428657;28;20228;-61
2021/08/25 11:32:50;;;;;;;2.57;1.80;;;19.60;73.70;;;;;;10437273;28;20209;-61
2021/08/25 11:38:15;;;;;;;4.70;2.37;;;19.70;73.70;;;;;;10440921;28;20192;-60
2021/08/25 11:43:48;;;;;;;2.87;2.07;;;19.70;73.70;;;;;;10440512;28;20607;-61
2021/08/25 11:49:10;;;;;;;3.33;1.80;;;19.60;73.50;;;;;;10441118;28;20213;-62
2021/08/25 11:54:33;;;;;;;4.17;1.80;;;19.60;73.60;;;;;;10436645;28;20213;-62
2021/08/25 12:00:00;;;;;;;5.10;1.90;;;19.60;73.60;;;;;;10443282;28;20660;-60
2021/08/25 12:05:24;;;;;;;1.97;1.40;;;19.70;73.70;;;;;;10457055;28;20367;-60
2021/08/25 12:10:48;;;;;;;2.60;1.57;;;19.70;73.60;;;;;;10454198;28;20224;-59
2021/08/25 12:16:20;;;;;;;2.17;1.50;;;19.60;73.60;;;;;;10450925;28;20692;-61
2021/08/25 12:21:43;;;;;;;1.40;1.30;;;19.70;73.50;;;;;;10457532;28;20688;-61
2021/08/25 12:27:05;;;;;;;3.47;1.47;;;19.70;73.50;;;;;;10452019;28;20272;-61
2021/08/25 12:32:42;;;;;;;2.13;1.30;;;19.70;73.50;;;;;;10457620;28;20213;-61
2021/08/25 12:38:05;;;;;;;2.07;1.50;;;19.80;73.80;;;;;;10451235;28;20696;-62
2021/08/25 12:43:27;;;;;;;1.40;1.00;;;19.70;74.10;;;;;;10456782;28;20217;-62
2021/08/25 12:48:51;;;;;;;1.73;1.13;;;19.70;73.60;;;;;;10455082;28;20236;-62
2021/08/25 12:54:13;;;;;;;1.97;1.30;;;19.70;73.10;;;;;;10455723;28;20219;-63
2021/08/25 12:59:35;;;;;;;1.83;1.10;;;19.70;73.00;;;;;;10434042;28;20209;-59
2021/08/25 13:04:58;;;;;;;2.20;1.20;;;19.70;72.90;;;;;;10449674;28;20229;-62
2021/08/25 13:10:21;;;;;;;2.40;1.00;;;19.70;72.90;;;;;;10455026;28;20185;-62
2021/08/25 13:15:44;;;;;;;1.10;1.00;;;19.70;72.80;;;;;;10451531;28;20201;-63
2021/08/25 13:21:07;;;;;;;1.67;1.00;;;19.70;72.90;;;;;;10449041;28;20216;-62
2021/08/25 13:26:29;;;;;;;1.53;0.90;;;19.70;72.90;;;;;;10454713;28;20213;-63
2021/08/25 13:31:51;;;;;;;2.67;0.90;;;19.60;73.10;;;;;;10453637;28;20217;-62
2021/08/25 13:37:15;;;;;;;2.23;0.70;;;19.70;73.10;;;;;;10450288;28;20272;-62
2021/08/25 13:42:37;;;;;;;2.47;0.80;;;19.60;73.20;;;;;;10450092;28;20224;-55
2021/08/25 13:47:59;;;;;;;3.10;1.00;;;19.60;73.40;;;;;;10448556;28;20228;-53
2021/08/25 13:53:23;;;;;;;1.33;0.97;;;19.60;73.40;;;;;;10451762;28;20224;-55
2021/08/25 13:58:45;;;;;;;1.83;1.00;;;19.60;73.60;;;;;;10440678;28;20194;-56
2021/08/25 14:04:07;;;;;;;1.73;0.90;;;19.70;73.80;;;;;;10475881;22;20221;-57
2021/08/25 14:09:30;;;;;;;1.40;0.70;;;19.60;74.00;;;;;;10487593;28;20224;-52
2021/08/25 14:14:53;;;;;;;2.20;0.73;;;19.60;74.10;;;;;;10468391;28;20216;-54
2021/08/25 14:20:15;;;;;;;0.90;0.80;;;19.70;74.20;;;;;;10493022;28;20195;-52
2021/08/25 14:25:38;;;;;;;1.00;0.60;;;19.60;74.30;;;;;;10493665;28;20239;-56
2021/08/25 14:31:01;;;;;;;1.20;0.63;;;19.60;74.90;;;;;;10493959;28;20723;-51
2021/08/25 14:36:23;;;;;;;1.10;0.73;;;19.60;74.40;;;;;;10494162;28;20204;-56
2021/08/25 14:41:46;;;;;;;0.60;0.60;;;19.70;74.20;;;;;;10494230;28;20290;-54
2021/08/25 14:47:09;;;;;;;0.93;0.73;;;19.60;74.60;;;;;;10493954;28;20235;-56
2021/08/25 14:52:31;;;;;;;1.70;0.60;;;19.70;74.60;;;;;;10492904;28;20579;-55
2021/08/25 14:57:55;;;;;;;0.90;0.70;;;19.70;74.50;;;;;;10517010;28;20646;-55
2021/08/25 15:03:17;;;;;;;1.43;0.50;;;19.60;74.40;;;;;;10519181;28;20223;-49
2021/08/25 15:08:39;;;;;;;0.90;0.70;;;19.70;74.40;;;;;;10486999;28;20215;-50
2021/08/25 15:14:02;;;;;;;0.50;0.43;;;19.60;74.40;;;;;;10456668;28;20281;-51
2021/08/25 15:19:25;;;;;;;0.70;0.50;;;19.70;74.50;;;;;;10486831;28;20188;-53
2021/08/25 15:24:47;;;;;;;1.00;0.67;;;19.70;74.40;;;;;;10486749;28;20345;-49
2021/08/25 15:30:12;;;;;;;0.87;0.50;;;19.70;74.40;;;;;;10486864;28;20242;-54
2021/08/25 15:35:34;;;;;;;0.63;0.47;;;19.70;74.50;;;;;;10486578;28;20567;-55
2021/08/25 15:40:56;;;;;;;0.63;0.60;;;19.70;74.50;;;;;;10485929;28;20220;-55
2021/08/25 15:46:20;;;;;;;0.53;0.50;;;19.70;74.60;;;;;;10486732;28;20231;-56
2021/08/25 15:51:43;;;;;;;0.50;0.40;;;19.70;74.70;;;;;;10485261;28;20223;-54
2021/08/25 15:57:05;;;;;;;0.70;0.57;;;19.60;74.60;;;;;;10461129;28;20204;-54
2021/08/25 16:02:29;;;;;;;0.40;0.30;;;19.60;74.70;;;;;;10474236;28;20232;-54
2021/08/25 16:07:51;;;;;;;0.40;0.40;;;19.70;74.80;;;;;;10485514;28;20216;-49
2021/08/25 16:13:13;;;;;;;0.80;0.60;;;19.70;74.90;;;;;;10455431;28;20209;-56
2021/08/25 16:18:37;;;;;;;0.50;0.43;;;19.60;74.90;;;;;;10462677;28;20227;-53
2021/08/25 16:24:00;;;;;;;0.63;0.60;;;19.70;74.90;;;;;;10492724;28;20304;-54
2021/08/25 16:29:22;;;;;;;0.60;0.40;;;19.60;74.90;;;;;;10494599;28;20294;-59
2021/08/25 16:34:45;;;;;;;1.17;0.60;;;19.60;75.00;;;;;;10498779;28;20607;-54
2021/08/25 16:40:09;;;;;;;0.50;0.50;;;19.70;75.10;;;;;;10498753;28;20602;-55
2021/08/25 16:45:31;;;;;;;0.57;0.57;;;19.70;73.80;;;;;;10497957;28;20221;-52
2021/08/25 16:50:54;;;;;;;0.43;0.40;;;19.70;74.50;;;;;;10494891;28;20219;-56
2021/08/25 16:56:17;;;;;;;0.80;0.50;;;19.70;74.70;;;;;;10526140;28;20200;-55
2021/08/25 17:01:39;;;;;;;0.70;0.50;;;19.70;74.70;;;;;;10493423;28;20653;-57
2021/08/25 17:07:02;;;;;;;0.40;0.40;;;19.70;74.80;;;;;;10494984;28;20212;-53
2021/08/25 17:12:24;;;;;;;0.80;0.50;;;19.70;74.80;;;;;;10493884;28;20216;-51
2021/08/25 17:17:46;;;;;;;0.70;0.50;;;19.70;74.80;;;;;;10497988;28;20197;-50
2021/08/25 17:23:10;;;;;;;0.60;0.40;;;19.70;74.80;;;;;;10495002;28;20571;-49
2021/08/25 17:28:32;;;;;;;0.67;0.60;;;19.70;74.90;;;;;;10495486;28;20231;-54
2021/08/25 17:33:55;;;;;;;0.40;0.40;;;19.70;74.90;;;;;;10496394;28;20223;-56
2021/08/25 17:39:18;;;;;;;0.60;0.43;;;19.70;75.00;;;;;;10491681;28;20207;-53
2021/08/25 17:44:43;;;;;;;0.30;0.30;;;19.70;75.00;;;;;;10494752;28;20227;-63
2021/08/25 17:50:05;;;;;;;0.40;0.40;;;19.70;75.10;;;;;;10494404;28;20216;-62
2021/08/25 17:55:29;;;;;;;0.50;0.50;;;19.70;75.10;;;;;;10523726;28;20431;-61
2021/08/25 18:00:51;;;;;;;0.43;0.40;;;20.20;73.60;;;;;;10527224;28;20196;-61
2021/08/25 18:06:13;;;;;;;0.40;0.40;;;19.90;74.20;;;;;;10535317;28;20218;-62
2021/08/25 18:11:37;;;;;;;0.53;0.40;;;19.80;74.60;;;;;;10515740;28;20227;-62
2021/08/25 18:16:59;;;;;;;0.63;0.50;;;19.80;75.00;;;;;;10487936;28;20196;-63
2021/08/25 18:22:21;;;;;;;2.40;0.70;;;19.70;75.10;;;;;;10487287;28;20213;-62
2021/08/25 18:27:44;;;;;;;0.60;0.57;;;19.70;75.20;;;;;;10486897;28;20231;-62
2021/08/25 18:33:06;;;;;;;0.77;0.60;;;19.70;75.40;;;;;;10486864;28;20219;-62
2021/08/25 18:38:29;;;;;;;0.73;0.40;;;19.70;75.00;;;;;;10485559;28;20192;-62
2021/08/25 18:43:52;;;;;;;0.70;0.60;;;19.80;73.60;;;;;;10485601;28;20232;-63
2021/08/25 18:49:14;;;;;;;0.60;0.60;;;19.80;74.10;;;;;;10486452;28;20216;-64
2021/08/25 18:54:37;;;;;;;0.40;0.40;;;19.80;74.00;;;;;;10487786;28;20227;-62
2021/08/25 19:00:00;;;;;;;1.77;0.50;;;19.80;73.20;;;;;;10486085;28;20647;-62
2021/08/25 19:05:23;;;;;;;0.80;0.50;;;19.80;73.90;;;;;;10484971;28;20224;-61
2021/08/25 19:10:45;;;;;;;0.70;0.60;;;19.80;73.20;;;;;;10485738;28;20215;-62
2021/08/25 19:16:09;;;;;;;0.53;0.40;;;19.90;73.40;;;;;;10485139;28;20197;-61
2021/08/25 19:21:31;;;;;;;0.40;0.40;;;19.80;73.70;;;;;;10484426;28;20216;-62
2021/08/25 19:26:53;;;;;;;0.63;0.50;;;19.90;72.60;;;;;;10485892;28;20857;-62
2021/08/25 19:32:17;;;;;;;0.50;0.40;;;19.90;73.30;;;;;;10484239;28;20706;-63
2021/08/25 19:37:39;;;;;;;0.50;0.50;;;19.90;73.60;;;;;;10488127;28;20655;-62
2021/08/25 19:43:02;;;;;;;1.43;0.73;;;19.90;73.00;;;;;;10489670;28;20212;-63
2021/08/25 19:48:26;;;;;;;0.50;0.50;;;20.00;73.30;;;;;;10490184;28;20591;-63
2021/08/25 19:53:48;;;;;;;1.53;0.60;;;19.90;73.60;;;;;;10497494;28;20216;-63
2021/08/25 19:59:10;;;;;;;0.57;0.50;;;19.90;73.30;;;;;;10498363;28;20191;-60
2021/08/25 20:04:33;;;;;;;0.57;0.50;;;20.00;72.90;;;;;;10521876;22;20220;-61
2021/08/25 20:09:56;;;;;;;0.40;0.40;;;19.90;73.40;;;;;;10485506;28;20564;-62
2021/08/25 20:15:18;;;;;;;0.60;0.50;;;19.90;73.70;;;;;;10498044;28;20606;-61
2021/08/25 20:20:41;;;;;;;0.47;0.40;;;20.00;72.40;;;;;;10498620;28;20211;-60
2021/08/25 20:26:03;;;;;;;0.40;0.40;;;19.90;73.20;;;;;;10498355;28;20587;-61
2021/08/25 20:31:25;;;;;;;0.50;0.40;;;19.90;73.60;;;;;;10498477;28;20706;-61
2021/08/25 20:36:49;;;;;;;0.50;0.50;;;19.90;73.10;;;;;;10498535;28;20200;-61
2021/08/25 20:42:11;;;;;;;0.80;0.50;;;20.00;73.00;;;;;;10498131;28;20227;-61
2021/08/25 20:47:33;;;;;;;0.70;0.50;;;19.90;73.40;;;;;;10497985;28;20212;-60
2021/08/25 20:53:00;;;;;;;0.37;0.37;;;19.90;73.70;;;;;;10505851;28;20220;-60
2021/08/25 20:58:22;;;;;;;0.97;0.40;;;19.90;72.60;;;;;;10522844;28;20237;-61
2021/08/25 21:03:45;;;;;;;0.40;0.40;;;19.90;73.30;;;;;;10515638;28;20228;-61
2021/08/25 21:09:08;;;;;;;0.30;0.30;;;19.80;73.60;;;;;;10496352;28;20691;-61
2021/08/25 21:14:31;;;;;;;0.80;0.60;;;19.80;73.20;;;;;;10496247;28;20216;-61
2021/08/25 21:19:53;;;;;;;0.67;0.50;;;19.90;73.00;;;;;;10496558;28;20279;-61
2021/08/25 21:25:17;;;;;;;0.50;0.50;;;19.80;73.30;;;;;;10496280;28;20429;-61
2021/08/25 21:30:39;;;;;;;0.50;0.50;;;19.80;73.60;;;;;;10483250;28;20801;-60
2021/08/25 21:36:01;;;;;;;0.80;0.57;;;20.00;72.40;;;;;;10495679;28;20213;-61
2021/08/25 21:41:26;;;;;;;1.10;0.60;;;19.90;72.90;;;;;;10495334;28;20192;-61
2021/08/25 21:46:48;;;;;;;0.30;0.30;;;19.80;73.40;;;;;;10494825;28;20200;-61
2021/08/25 21:52:10;;;;;;;0.50;0.50;;;19.80;73.30;;;;;;10498547;28;20678;-61
2021/08/25 21:57:34;;;;;;;1.00;0.40;;;19.90;72.90;;;;;;10497099;28;20187;-61
2021/08/25 22:02:56;;;;;;;1.53;0.43;;;19.80;73.50;;;;;;10501190;28;20227;-61
2021/08/25 22:08:18;;;;;;;0.50;0.43;;;19.80;73.10;;;;;;10493974;28;20672;-60
2021/08/25 22:13:41;;;;;;;0.50;0.50;;;19.80;73.00;;;;;;10488688;28;20299;-62
2021/08/25 22:19:03;;;;;;;0.60;0.50;;;19.80;73.50;;;;;;10493660;28;20541;-62
2021/08/25 22:24:26;;;;;;;0.50;0.50;;;19.80;72.70;;;;;;10494078;28;20714;-63
2021/08/25 22:29:49;;;;;;;1.27;0.50;;;19.80;73.20;;;;;;10493162;28;20212;-61
2021/08/25 22:35:11;;;;;;;0.70;0.40;;;19.80;73.70;;;;;;10493085;28;20216;-61
2021/08/25 22:40:33;;;;;;;0.40;0.40;;;19.80;72.70;;;;;;10492967;28;20200;-61
2021/08/25 22:45:57;;;;;;;0.40;0.40;;;19.80;73.00;;;;;;10492904;28;20691;-63
2021/08/25 22:51:19;;;;;;;1.00;0.50;;;19.80;73.50;;;;;;10492719;28;20579;-61
2021/08/25 22:56:41;;;;;;;0.87;0.63;;;19.80;73.60;;;;;;10506286;28;20206;-62
2021/08/25 23:02:05;;;;;;;0.40;0.40;;;19.80;72.90;;;;;;10470003;28;20220;-61
2021/08/25 23:07:27;;;;;;;0.70;0.60;;;19.80;73.60;;;;;;10498658;28;20212;-60
2021/08/25 23:12:50;;;;;;;0.50;0.50;;;19.80;73.50;;;;;;10491408;28;20212;-59
2021/08/25 23:18:13;;;;;;;0.50;0.40;;;19.80;72.90;;;;;;10491193;28;20200;-59
2021/08/25 23:23:35;;;;;;;0.50;0.50;;;19.80;73.50;;;;;;10493224;28;20208;-60
2021/08/25 23:28:57;;;;;;;1.63;0.70;;;19.80;73.10;;;;;;10492255;28;20713;-60
2021/08/25 23:34:20;;;;;;;0.63;0.47;;;19.80;72.90;;;;;;10500356;28;20290;-59
2021/08/25 23:39:42;;;;;;;0.90;0.70;;;19.80;73.40;;;;;;10498755;28;20191;-61
2021/08/25 23:45:06;;;;;;;0.60;0.60;;;19.80;73.00;;;;;;10499742;28;20219;-61
2021/08/25 23:50:31;;;;;;;1.50;0.60;;;19.80;72.70;;;;;;10499058;28;20255;-61
2021/08/25 23:55:54;;;;;;;0.87;0.60;;;19.80;73.30;;;;;;10495491;28;20239;-59
